sensor_id;sensor_type;location;lat;lon;timestamp;P1;durP1;ratioP1;P2;durP2;ratioP2
21833;SDS011;11079;51.092;3.458;2024-03-23T00:52:49;15.30;;;6.85;;
21833;SDS011;11079;51.092;3.458;2024-03-23T00:55:15;17.88;;;7.05;;
21833;SDS011;11079;51.092;3.458;2024-03-23T00:57:40;24.10;;;6.88;;
21833;SDS011;11079;51.092;3.458;2024-03-23T01:00:06;20.92;;;7.78;;
21833;SDS011;11079;51.092;3.458;2024-03-23T01:02:35;17.95;;;7.25;;
21833;SDS011;11079;51.092;3.458;2024-03-23T01:05:01;22.55;;;7.47;;
21833;SDS011;11079;51.092;3.458;2024-03-23T01:07:27;14.48;;;6.63;;
21833;SDS011;11079;51.092;3.458;2024-03-23T01:09:53;17.02;;;6.57;;
21833;SDS011;11079;51.092;3.458;2024-03-23T01:12:18;11.88;;;5.65;;
21833;SDS011;11079;51.092;3.458;2024-03-23T01:14:44;13.15;;;6.15;;
21833;SDS011;11079;51.092;3.458;2024-03-23T01:17:11;20.77;;;5.90;;
21833;SDS011;11079;51.092;3.458;2024-03-23T01:19:36;11.90;;;5.88;;
21833;SDS011;11079;51.092;3.458;2024-03-23T01:22:04;15.40;;;6.40;;
21833;SDS011;11079;51.092;3.458;2024-03-23T01:24:30;13.20;;;6.15;;
21833;SDS011;11079;51.092;3.458;2024-03-23T01:26:55;12.60;;;5.50;;
21833;SDS011;11079;51.092;3.458;2024-03-23T01:29:21;21.00;;;6.10;;
21833;SDS011;11079;51.092;3.458;2024-03-23T01:31:49;16.83;;;5.70;;
21833;SDS011;11079;51.092;3.458;2024-03-23T01:34:17;15.82;;;5.05;;
21833;SDS011;11079;51.092;3.458;2024-03-23T01:36:44;12.32;;;5.55;;
21833;SDS011;11079;51.092;3.458;2024-03-23T01:39:11;11.65;;;4.97;;
21833;SDS011;11079;51.092;3.458;2024-03-23T01:41:39;13.13;;;5.40;;
21833;SDS011;11079;51.092;3.458;2024-03-23T01:44:08;15.07;;;5.00;;
21833;SDS011;11079;51.092;3.458;2024-03-23T01:46:34;15.55;;;5.00;;
21833;SDS011;11079;51.092;3.458;2024-03-23T01:49:01;14.40;;;4.72;;
21833;SDS011;11079;51.092;3.458;2024-03-23T01:51:28;13.15;;;4.63;;
21833;SDS011;11079;51.092;3.458;2024-03-23T01:53:55;22.73;;;5.40;;
21833;SDS011;11079;51.092;3.458;2024-03-23T01:56:35;11.60;;;4.35;;
21833;SDS011;11079;51.092;3.458;2024-03-23T01:59:03;10.75;;;5.15;;
21833;SDS011;11079;51.092;3.458;2024-03-23T02:01:32;13.45;;;5.03;;
21833;SDS011;11079;51.092;3.458;2024-03-23T02:04:05;11.55;;;4.72;;
21833;SDS011;11079;51.092;3.458;2024-03-23T02:06:30;17.27;;;4.45;;
21833;SDS011;11079;51.092;3.458;2024-03-23T02:08:56;14.50;;;4.80;;
21833;SDS011;11079;51.092;3.458;2024-03-23T02:11:23;15.82;;;4.55;;
21833;SDS011;11079;51.092;3.458;2024-03-23T02:13:48;12.48;;;4.93;;
21833;SDS011;11079;51.092;3.458;2024-03-23T02:16:14;11.55;;;4.18;;
21833;SDS011;11079;51.092;3.458;2024-03-23T02:18:40;10.43;;;3.78;;
21833;SDS011;11079;51.092;3.458;2024-03-23T02:21:09;12.18;;;3.85;;
21833;SDS011;11079;51.092;3.458;2024-03-23T02:23:34;15.43;;;4.07;;
21833;SDS011;11079;51.092;3.458;2024-03-23T02:26:00;15.50;;;4.18;;
21833;SDS011;11079;51.092;3.458;2024-03-23T02:28:27;6.82;;;3.47;;
21833;SDS011;11079;51.092;3.458;2024-03-23T02:30:53;7.40;;;3.35;;
21833;SDS011;11079;51.092;3.458;2024-03-23T02:33:19;9.00;;;4.28;;
21833;SDS011;11079;51.092;3.458;2024-03-23T02:35:45;13.63;;;3.92;;
21833;SDS011;11079;51.092;3.458;2024-03-23T02:38:10;9.13;;;4.80;;
21833;SDS011;11079;51.092;3.458;2024-03-23T02:40:36;13.50;;;4.13;;
21833;SDS011;11079;51.092;3.458;2024-03-23T02:43:02;11.23;;;3.78;;
21833;SDS011;11079;51.092;3.458;2024-03-23T02:45:29;10.63;;;3.60;;
21833;SDS011;11079;51.092;3.458;2024-03-23T02:47:54;11.27;;;3.30;;
21833;SDS011;11079;51.092;3.458;2024-03-23T02:50:20;8.07;;;3.50;;
21833;SDS011;11079;51.092;3.458;2024-03-23T02:52:46;12.43;;;3.45;;
21833;SDS011;11079;51.092;3.458;2024-03-23T02:55:12;9.15;;;3.13;;
21833;SDS011;11079;51.092;3.458;2024-03-23T02:57:40;6.72;;;3.38;;
21833;SDS011;11079;51.092;3.458;2024-03-23T03:00:07;7.25;;;3.38;;
21833;SDS011;11079;51.092;3.458;2024-03-23T03:02:34;8.32;;;3.60;;
21833;SDS011;11079;51.092;3.458;2024-03-23T03:05:00;10.63;;;3.10;;
21833;SDS011;11079;51.092;3.458;2024-03-23T03:07:26;6.03;;;3.20;;
21833;SDS011;11079;51.092;3.458;2024-03-23T03:09:51;9.95;;;3.72;;
21833;SDS011;11079;51.092;3.458;2024-03-23T03:12:17;7.47;;;3.03;;
21833;SDS011;11079;51.092;3.458;2024-03-23T03:14:43;13.93;;;4.00;;
21833;SDS011;11079;51.092;3.458;2024-03-23T03:17:08;10.88;;;3.45;;
21833;SDS011;11079;51.092;3.458;2024-03-23T03:19:34;11.45;;;3.58;;
21833;SDS011;11079;51.092;3.458;2024-03-23T03:22:00;10.95;;;3.70;;
21833;SDS011;11079;51.092;3.458;2024-03-23T03:24:25;10.07;;;3.28;;
21833;SDS011;11079;51.092;3.458;2024-03-23T03:26:51;8.88;;;3.45;;
21833;SDS011;11079;51.092;3.458;2024-03-23T03:29:18;9.77;;;3.75;;
21833;SDS011;11079;51.092;3.458;2024-03-23T03:31:45;7.53;;;2.80;;
21833;SDS011;11079;51.092;3.458;2024-03-23T03:34:11;10.85;;;3.13;;
21833;SDS011;11079;51.092;3.458;2024-03-23T03:36:36;10.85;;;3.70;;
21833;SDS011;11079;51.092;3.458;2024-03-23T03:39:02;8.70;;;2.63;;
21833;SDS011;11079;51.092;3.458;2024-03-23T03:41:29;10.43;;;2.08;;
21833;SDS011;11079;51.092;3.458;2024-03-23T03:43:56;6.30;;;2.55;;
21833;SDS011;11079;51.092;3.458;2024-03-23T03:46:27;9.98;;;2.22;;
21833;SDS011;11079;51.092;3.458;2024-03-23T03:48:54;5.32;;;2.45;;
21833;SDS011;11079;51.092;3.458;2024-03-23T03:51:20;13.48;;;3.22;;
21833;SDS011;11079;51.092;3.458;2024-03-23T03:53:47;6.55;;;2.50;;
21833;SDS011;11079;51.092;3.458;2024-03-23T03:56:13;10.98;;;3.22;;
21833;SDS011;11079;51.092;3.458;2024-03-23T03:58:38;6.75;;;2.70;;
21833;SDS011;11079;51.092;3.458;2024-03-23T04:01:05;9.90;;;3.08;;
21833;SDS011;11079;51.092;3.458;2024-03-23T04:03:31;3.72;;;2.35;;
21833;SDS011;11079;51.092;3.458;2024-03-23T04:05:56;10.90;;;2.80;;
21833;SDS011;11079;51.092;3.458;2024-03-23T04:08:22;7.85;;;2.47;;
21833;SDS011;11079;51.092;3.458;2024-03-23T04:10:48;8.98;;;2.72;;
21833;SDS011;11079;51.092;3.458;2024-03-23T04:13:14;9.18;;;3.22;;
21833;SDS011;11079;51.092;3.458;2024-03-23T04:15:40;9.20;;;2.45;;
21833;SDS011;11079;51.092;3.458;2024-03-23T04:18:06;7.07;;;3.08;;
21833;SDS011;11079;51.092;3.458;2024-03-23T04:20:32;5.55;;;2.17;;
21833;SDS011;11079;51.092;3.458;2024-03-23T04:22:58;8.32;;;2.70;;
21833;SDS011;11079;51.092;3.458;2024-03-23T04:25:24;7.45;;;2.47;;
21833;SDS011;11079;51.092;3.458;2024-03-23T04:27:50;7.65;;;2.38;;
21833;SDS011;11079;51.092;3.458;2024-03-23T04:30:16;10.15;;;2.22;;
21833;SDS011;11079;51.092;3.458;2024-03-23T04:32:46;7.68;;;2.03;;
21833;SDS011;11079;51.092;3.458;2024-03-23T04:35:12;8.77;;;2.40;;
21833;SDS011;11079;51.092;3.458;2024-03-23T04:37:39;10.77;;;2.03;;
21833;SDS011;11079;51.092;3.458;2024-03-23T04:40:08;7.53;;;2.20;;
21833;SDS011;11079;51.092;3.458;2024-03-23T04:42:33;6.95;;;2.17;;
21833;SDS011;11079;51.092;3.458;2024-03-23T04:45:00;7.95;;;2.45;;
21833;SDS011;11079;51.092;3.458;2024-03-23T04:47:25;11.15;;;2.55;;
21833;SDS011;11079;51.092;3.458;2024-03-23T04:49:51;5.20;;;2.33;;
21833;SDS011;11079;51.092;3.458;2024-03-23T04:52:17;12.90;;;2.75;;
21833;SDS011;11079;51.092;3.458;2024-03-23T04:54:43;9.35;;;2.63;;
21833;SDS011;11079;51.092;3.458;2024-03-23T04:57:10;6.63;;;2.53;;
21833;SDS011;11079;51.092;3.458;2024-03-23T04:59:36;12.82;;;2.78;;
21833;SDS011;11079;51.092;3.458;2024-03-23T05:02:02;6.10;;;2.45;;
21833;SDS011;11079;51.092;3.458;2024-03-23T05:04:28;11.68;;;2.17;;
21833;SDS011;11079;51.092;3.458;2024-03-23T05:06:53;10.43;;;2.38;;
21833;SDS011;11079;51.092;3.458;2024-03-23T05:09:19;6.57;;;1.77;;
21833;SDS011;11079;51.092;3.458;2024-03-23T05:11:46;7.85;;;2.35;;
21833;SDS011;11079;51.092;3.458;2024-03-23T05:14:12;11.38;;;2.60;;
21833;SDS011;11079;51.092;3.458;2024-03-23T05:16:38;4.55;;;1.85;;
21833;SDS011;11079;51.092;3.458;2024-03-23T05:19:04;10.52;;;1.88;;
21833;SDS011;11079;51.092;3.458;2024-03-23T05:21:30;4.45;;;1.75;;
21833;SDS011;11079;51.092;3.458;2024-03-23T05:23:56;11.48;;;2.20;;
21833;SDS011;11079;51.092;3.458;2024-03-23T05:26:22;7.20;;;2.50;;
21833;SDS011;11079;51.092;3.458;2024-03-23T05:28:48;8.18;;;2.10;;
21833;SDS011;11079;51.092;3.458;2024-03-23T05:31:35;10.05;;;2.28;;
21833;SDS011;11079;51.092;3.458;2024-03-23T05:34:00;4.53;;;1.60;;
21833;SDS011;11079;51.092;3.458;2024-03-23T05:36:25;11.25;;;1.60;;
21833;SDS011;11079;51.092;3.458;2024-03-23T05:38:51;16.75;;;3.17;;
21833;SDS011;11079;51.092;3.458;2024-03-23T05:41:17;7.28;;;1.90;;
21833;SDS011;11079;51.092;3.458;2024-03-23T05:43:43;9.52;;;2.30;;
21833;SDS011;11079;51.092;3.458;2024-03-23T05:46:09;10.25;;;3.08;;
21833;SDS011;11079;51.092;3.458;2024-03-23T05:48:35;7.18;;;2.03;;
21833;SDS011;11079;51.092;3.458;2024-03-23T05:51:00;4.35;;;2.63;;
21833;SDS011;11079;51.092;3.458;2024-03-23T05:53:27;8.88;;;2.20;;
21833;SDS011;11079;51.092;3.458;2024-03-23T05:56:02;7.55;;;2.13;;
21833;SDS011;11079;51.092;3.458;2024-03-23T05:58:29;9.57;;;2.20;;
21833;SDS011;11079;51.092;3.458;2024-03-23T06:00:58;2.42;;;1.35;;
21833;SDS011;11079;51.092;3.458;2024-03-23T06:03:25;12.80;;;2.53;;
21833;SDS011;11079;51.092;3.458;2024-03-23T06:05:51;12.13;;;2.03;;
21833;SDS011;11079;51.092;3.458;2024-03-23T06:08:18;6.53;;;2.00;;
21833;SDS011;11079;51.092;3.458;2024-03-23T06:10:45;13.43;;;2.53;;
21833;SDS011;11079;51.092;3.458;2024-03-23T06:13:11;6.25;;;2.28;;
21833;SDS011;11079;51.092;3.458;2024-03-23T06:15:37;6.78;;;1.88;;
21833;SDS011;11079;51.092;3.458;2024-03-23T06:18:03;11.55;;;2.20;;
21833;SDS011;11079;51.092;3.458;2024-03-23T06:20:30;12.10;;;2.40;;
21833;SDS011;11079;51.092;3.458;2024-03-23T06:22:56;6.50;;;1.90;;
21833;SDS011;11079;51.092;3.458;2024-03-23T06:25:22;6.45;;;2.17;;
21833;SDS011;11079;51.092;3.458;2024-03-23T06:27:47;6.20;;;2.03;;
21833;SDS011;11079;51.092;3.458;2024-03-23T06:30:13;9.40;;;2.17;;
21833;SDS011;11079;51.092;3.458;2024-03-23T06:32:39;9.00;;;2.10;;
21833;SDS011;11079;51.092;3.458;2024-03-23T06:35:05;10.05;;;2.22;;
21833;SDS011;11079;51.092;3.458;2024-03-23T06:37:36;10.18;;;2.33;;
21833;SDS011;11079;51.092;3.458;2024-03-23T06:40:03;8.63;;;1.92;;
21833;SDS011;11079;51.092;3.458;2024-03-23T06:42:33;7.05;;;1.73;;
21833;SDS011;11079;51.092;3.458;2024-03-23T06:44:59;6.57;;;2.00;;
21833;SDS011;11079;51.092;3.458;2024-03-23T06:47:25;6.55;;;1.83;;
21833;SDS011;11079;51.092;3.458;2024-03-23T06:49:50;8.13;;;1.88;;
21833;SDS011;11079;51.092;3.458;2024-03-23T06:52:17;11.05;;;2.40;;
21833;SDS011;11079;51.092;3.458;2024-03-23T06:54:42;10.20;;;3.13;;
21833;SDS011;11079;51.092;3.458;2024-03-23T06:57:10;8.25;;;2.13;;
21833;SDS011;11079;51.092;3.458;2024-03-23T06:59:37;8.65;;;1.73;;
21833;SDS011;11079;51.092;3.458;2024-03-23T07:02:04;18.85;;;2.53;;
21833;SDS011;11079;51.092;3.458;2024-03-23T07:04:30;8.98;;;2.08;;
21833;SDS011;11079;51.092;3.458;2024-03-23T07:06:56;9.30;;;2.35;;
21833;SDS011;11079;51.092;3.458;2024-03-23T07:09:21;8.25;;;1.92;;
21833;SDS011;11079;51.092;3.458;2024-03-23T07:11:51;6.85;;;1.85;;
21833;SDS011;11079;51.092;3.458;2024-03-23T07:14:19;6.32;;;2.05;;
21833;SDS011;11079;51.092;3.458;2024-03-23T07:16:45;5.38;;;2.03;;
21833;SDS011;11079;51.092;3.458;2024-03-23T07:19:11;5.07;;;1.58;;
21833;SDS011;11079;51.092;3.458;2024-03-23T07:21:36;7.90;;;2.03;;
21833;SDS011;11079;51.092;3.458;2024-03-23T07:24:02;10.07;;;2.33;;
21833;SDS011;11079;51.092;3.458;2024-03-23T07:26:28;6.53;;;1.92;;
21833;SDS011;11079;51.092;3.458;2024-03-23T07:28:53;7.82;;;2.42;;
21833;SDS011;11079;51.092;3.458;2024-03-23T07:31:19;9.32;;;2.10;;
21833;SDS011;11079;51.092;3.458;2024-03-23T07:33:46;11.55;;;2.45;;
21833;SDS011;11079;51.092;3.458;2024-03-23T07:36:13;9.45;;;2.42;;
21833;SDS011;11079;51.092;3.458;2024-03-23T07:38:41;8.50;;;2.25;;
21833;SDS011;11079;51.092;3.458;2024-03-23T07:41:11;3.97;;;2.38;;
21833;SDS011;11079;51.092;3.458;2024-03-23T07:43:48;8.80;;;2.53;;
21833;SDS011;11079;51.092;3.458;2024-03-23T07:46:29;4.90;;;2.25;;
21833;SDS011;11079;51.092;3.458;2024-03-23T07:49:01;7.43;;;2.13;;
21833;SDS011;11079;51.092;3.458;2024-03-23T07:51:43;5.03;;;1.48;;
21833;SDS011;11079;51.092;3.458;2024-03-23T07:54:10;7.68;;;2.35;;
21833;SDS011;11079;51.092;3.458;2024-03-23T07:56:36;6.07;;;1.40;;
21833;SDS011;11079;51.092;3.458;2024-03-23T07:59:01;7.43;;;1.45;;
21833;SDS011;11079;51.092;3.458;2024-03-23T08:01:28;6.40;;;1.63;;
21833;SDS011;11079;51.092;3.458;2024-03-23T08:03:54;4.28;;;1.17;;
21833;SDS011;11079;51.092;3.458;2024-03-23T08:06:20;6.72;;;1.38;;
21833;SDS011;11079;51.092;3.458;2024-03-23T08:08:50;4.05;;;1.10;;
21833;SDS011;11079;51.092;3.458;2024-03-23T08:11:25;6.63;;;1.35;;
21833;SDS011;11079;51.092;3.458;2024-03-23T08:13:54;5.15;;;1.40;;
21833;SDS011;11079;51.092;3.458;2024-03-23T08:16:22;7.43;;;1.42;;
21833;SDS011;11079;51.092;3.458;2024-03-23T08:18:47;5.80;;;1.27;;
21833;SDS011;11079;51.092;3.458;2024-03-23T08:21:13;4.05;;;1.80;;
21833;SDS011;11079;51.092;3.458;2024-03-23T08:23:39;5.63;;;1.50;;
21833;SDS011;11079;51.092;3.458;2024-03-23T08:26:09;7.38;;;1.73;;
21833;SDS011;11079;51.092;3.458;2024-03-23T08:28:38;6.28;;;1.75;;
21833;SDS011;11079;51.092;3.458;2024-03-23T08:31:09;9.55;;;1.65;;
21833;SDS011;11079;51.092;3.458;2024-03-23T08:33:36;5.38;;;1.40;;
21833;SDS011;11079;51.092;3.458;2024-03-23T08:38:30;7.15;;;1.38;;
21833;SDS011;11079;51.092;3.458;2024-03-23T08:40:57;6.53;;;2.05;;
21833;SDS011;11079;51.092;3.458;2024-03-23T08:43:23;8.18;;;1.20;;
21833;SDS011;11079;51.092;3.458;2024-03-23T08:45:49;5.03;;;1.50;;
21833;SDS011;11079;51.092;3.458;2024-03-23T08:48:15;6.00;;;1.33;;
21833;SDS011;11079;51.092;3.458;2024-03-23T08:50:41;6.43;;;1.58;;
21833;SDS011;11079;51.092;3.458;2024-03-23T08:53:06;5.97;;;1.30;;
21833;SDS011;11079;51.092;3.458;2024-03-23T08:55:32;5.35;;;1.15;;
21833;SDS011;11079;51.092;3.458;2024-03-23T08:57:57;8.10;;;1.83;;
21833;SDS011;11079;51.092;3.458;2024-03-23T09:00:23;4.65;;;1.55;;
21833;SDS011;11079;51.092;3.458;2024-03-23T09:02:49;4.47;;;1.30;;
21833;SDS011;11079;51.092;3.458;2024-03-23T09:05:15;5.75;;;1.67;;
21833;SDS011;11079;51.092;3.458;2024-03-23T09:07:40;4.45;;;1.13;;
21833;SDS011;11079;51.092;3.458;2024-03-23T09:10:06;4.88;;;1.35;;
21833;SDS011;11079;51.092;3.458;2024-03-23T09:12:32;3.22;;;1.30;;
21833;SDS011;11079;51.092;3.458;2024-03-23T09:14:58;3.63;;;1.27;;
21833;SDS011;11079;51.092;3.458;2024-03-23T09:17:24;8.18;;;1.42;;
21833;SDS011;11079;51.092;3.458;2024-03-23T09:19:49;2.58;;;1.30;;
21833;SDS011;11079;51.092;3.458;2024-03-23T09:22:15;3.67;;;1.08;;
21833;SDS011;11079;51.092;3.458;2024-03-23T09:24:40;2.50;;;1.15;;
21833;SDS011;11079;51.092;3.458;2024-03-23T09:27:07;3.67;;;1.15;;
21833;SDS011;11079;51.092;3.458;2024-03-23T09:29:33;3.08;;;0.80;;
21833;SDS011;11079;51.092;3.458;2024-03-23T09:31:58;3.25;;;1.05;;
21833;SDS011;11079;51.092;3.458;2024-03-23T09:34:24;2.75;;;1.00;;
21833;SDS011;11079;51.092;3.458;2024-03-23T09:36:53;7.40;;;1.42;;
21833;SDS011;11079;51.092;3.458;2024-03-23T09:39:18;4.93;;;1.88;;
21833;SDS011;11079;51.092;3.458;2024-03-23T09:41:45;7.00;;;1.42;;
21833;SDS011;11079;51.092;3.458;2024-03-23T09:44:11;7.85;;;1.25;;
21833;SDS011;11079;51.092;3.458;2024-03-23T09:46:36;4.10;;;1.30;;
21833;SDS011;11079;51.092;3.458;2024-03-23T09:49:04;7.03;;;1.63;;
21833;SDS011;11079;51.092;3.458;2024-03-23T09:51:34;7.20;;;1.40;;
21833;SDS011;11079;51.092;3.458;2024-03-23T09:54:01;6.25;;;1.30;;
21833;SDS011;11079;51.092;3.458;2024-03-23T09:56:26;5.85;;;0.95;;
21833;SDS011;11079;51.092;3.458;2024-03-23T09:58:59;4.85;;;1.30;;
21833;SDS011;11079;51.092;3.458;2024-03-23T10:01:26;6.88;;;1.30;;
21833;SDS011;11079;51.092;3.458;2024-03-23T10:03:51;4.97;;;1.08;;
21833;SDS011;11079;51.092;3.458;2024-03-23T10:06:17;6.65;;;1.67;;
21833;SDS011;11079;51.092;3.458;2024-03-23T10:08:47;4.47;;;1.33;;
21833;SDS011;11079;51.092;3.458;2024-03-23T10:11:13;4.63;;;1.42;;
21833;SDS011;11079;51.092;3.458;2024-03-23T10:13:43;5.35;;;1.50;;
21833;SDS011;11079;51.092;3.458;2024-03-23T10:16:09;3.20;;;1.60;;
21833;SDS011;11079;51.092;3.458;2024-03-23T10:18:39;6.00;;;1.48;;
21833;SDS011;11079;51.092;3.458;2024-03-23T10:23:36;9.05;;;2.25;;
21833;SDS011;11079;51.092;3.458;2024-03-23T10:26:19;6.10;;;2.00;;
21833;SDS011;11079;51.092;3.458;2024-03-23T10:28:57;6.47;;;1.67;;
21833;SDS011;11079;51.092;3.458;2024-03-23T10:31:26;6.40;;;1.60;;
21833;SDS011;11079;51.092;3.458;2024-03-23T10:33:52;3.40;;;1.65;;
21833;SDS011;11079;51.092;3.458;2024-03-23T10:36:24;5.78;;;1.88;;
21833;SDS011;11079;51.092;3.458;2024-03-23T10:38:54;6.32;;;1.90;;
21833;SDS011;11079;51.092;3.458;2024-03-23T10:41:20;8.55;;;1.52;;
21833;SDS011;11079;51.092;3.458;2024-03-23T10:43:46;12.38;;;1.60;;
21833;SDS011;11079;51.092;3.458;2024-03-23T10:46:15;3.22;;;1.30;;
21833;SDS011;11079;51.092;3.458;2024-03-23T10:48:40;3.35;;;1.42;;
21833;SDS011;11079;51.092;3.458;2024-03-23T10:51:07;4.82;;;2.15;;
21833;SDS011;11079;51.092;3.458;2024-03-23T10:53:34;7.10;;;2.00;;
21833;SDS011;11079;51.092;3.458;2024-03-23T10:56:02;3.70;;;1.75;;
21833;SDS011;11079;51.092;3.458;2024-03-23T10:58:33;6.38;;;2.80;;
21833;SDS011;11079;51.092;3.458;2024-03-23T11:01:11;7.68;;;1.95;;
21833;SDS011;11079;51.092;3.458;2024-03-23T11:03:40;5.57;;;1.70;;
21833;SDS011;11079;51.092;3.458;2024-03-23T11:06:10;4.00;;;1.20;;
21833;SDS011;11079;51.092;3.458;2024-03-23T11:14:52;3.00;;;1.13;;
21833;SDS011;11079;51.092;3.458;2024-03-23T11:17:26;5.75;;;1.73;;
21833;SDS011;11079;51.092;3.458;2024-03-23T11:20:49;3.70;;;1.40;;
21833;SDS011;11079;51.092;3.458;2024-03-23T11:23:27;6.20;;;1.63;;
21833;SDS011;11079;51.092;3.458;2024-03-23T11:25:53;5.82;;;1.63;;
21833;SDS011;11079;51.092;3.458;2024-03-23T11:28:24;6.28;;;1.48;;
21833;SDS011;11079;51.092;3.458;2024-03-23T11:30:52;4.50;;;1.25;;
21833;SDS011;11079;51.092;3.458;2024-03-23T11:33:18;2.75;;;0.75;;
21833;SDS011;11079;51.092;3.458;2024-03-23T11:35:47;3.20;;;1.05;;
21833;SDS011;11079;51.092;3.458;2024-03-23T11:38:30;6.45;;;1.67;;
21833;SDS011;11079;51.092;3.458;2024-03-23T11:41:06;3.30;;;1.20;;
21833;SDS011;11079;51.092;3.458;2024-03-23T11:43:54;6.30;;;1.58;;
21833;SDS011;11079;51.092;3.458;2024-03-23T11:46:22;5.82;;;1.15;;
21833;SDS011;11079;51.092;3.458;2024-03-23T11:48:53;5.22;;;1.58;;
21833;SDS011;11079;51.092;3.458;2024-03-23T11:51:18;6.10;;;1.25;;
21833;SDS011;11079;51.092;3.458;2024-03-23T11:53:48;3.50;;;1.23;;
21833;SDS011;11079;51.092;3.458;2024-03-23T11:56:37;4.65;;;1.40;;
21833;SDS011;11079;51.092;3.458;2024-03-23T11:59:08;4.93;;;1.48;;
21833;SDS011;11079;51.092;3.458;2024-03-23T12:01:35;6.32;;;1.42;;
21833;SDS011;11079;51.092;3.458;2024-03-23T12:04:06;5.32;;;1.33;;
21833;SDS011;11079;51.092;3.458;2024-03-23T12:07:26;4.53;;;1.48;;
21833;SDS011;11079;51.092;3.458;2024-03-23T12:10:04;4.75;;;1.20;;
21833;SDS011;11079;51.092;3.458;2024-03-23T12:12:31;4.07;;;1.20;;
21833;SDS011;11079;51.092;3.458;2024-03-23T12:15:01;7.20;;;1.60;;
21833;SDS011;11079;51.092;3.458;2024-03-23T12:17:29;5.60;;;1.60;;
21833;SDS011;11079;51.092;3.458;2024-03-23T12:19:55;8.80;;;2.10;;
21833;SDS011;11079;51.092;3.458;2024-03-23T12:22:21;9.20;;;2.05;;
21833;SDS011;11079;51.092;3.458;2024-03-23T12:24:48;3.42;;;1.35;;
21833;SDS011;11079;51.092;3.458;2024-03-23T12:27:13;7.15;;;1.42;;
21833;SDS011;11079;51.092;3.458;2024-03-23T12:29:40;6.60;;;1.95;;
21833;SDS011;11079;51.092;3.458;2024-03-23T12:32:08;6.28;;;1.20;;
21833;SDS011;11079;51.092;3.458;2024-03-23T12:34:34;5.75;;;1.58;;
21833;SDS011;11079;51.092;3.458;2024-03-23T12:37:00;5.03;;;1.40;;
21833;SDS011;11079;51.092;3.458;2024-03-23T12:39:25;2.63;;;1.00;;
21833;SDS011;11079;51.092;3.458;2024-03-23T12:41:51;6.50;;;1.33;;
21833;SDS011;11079;51.092;3.458;2024-03-23T12:44:20;3.15;;;1.10;;
21833;SDS011;11079;51.092;3.458;2024-03-23T12:46:46;2.90;;;0.90;;
21833;SDS011;11079;51.092;3.458;2024-03-23T12:49:11;5.03;;;1.02;;
21833;SDS011;11079;51.092;3.458;2024-03-23T12:51:37;5.05;;;1.50;;
21833;SDS011;11079;51.092;3.458;2024-03-23T12:54:03;3.55;;;1.05;;
21833;SDS011;11079;51.092;3.458;2024-03-23T12:56:29;4.70;;;1.10;;
21833;SDS011;11079;51.092;3.458;2024-03-23T12:58:58;4.43;;;1.00;;
21833;SDS011;11079;51.092;3.458;2024-03-23T13:01:25;3.72;;;0.85;;
21833;SDS011;11079;51.092;3.458;2024-03-23T13:04:05;2.70;;;1.02;;
21833;SDS011;11079;51.092;3.458;2024-03-23T13:06:48;2.90;;;1.00;;
21833;SDS011;11079;51.092;3.458;2024-03-23T13:09:18;4.25;;;0.80;;
21833;SDS011;11079;51.092;3.458;2024-03-23T13:11:46;3.83;;;1.50;;
21833;SDS011;11079;51.092;3.458;2024-03-23T13:14:56;3.28;;;0.95;;
21833;SDS011;11079;51.092;3.458;2024-03-23T13:17:32;4.70;;;1.73;;
21833;SDS011;11079;51.092;3.458;2024-03-23T13:20:01;3.35;;;1.60;;
21833;SDS011;11079;51.092;3.458;2024-03-23T13:22:39;4.78;;;1.15;;
21833;SDS011;11079;51.092;3.458;2024-03-23T13:25:07;3.35;;;1.42;;
21833;SDS011;11079;51.092;3.458;2024-03-23T13:28:15;2.00;;;0.95;;
21833;SDS011;11079;51.092;3.458;2024-03-23T13:30:52;3.15;;;1.40;;
21833;SDS011;11079;51.092;3.458;2024-03-23T13:33:36;6.32;;;1.75;;
21833;SDS011;11079;51.092;3.458;2024-03-23T13:36:04;3.20;;;1.17;;
21833;SDS011;11079;51.092;3.458;2024-03-23T13:38:37;6.63;;;1.75;;
21833;SDS011;11079;51.092;3.458;2024-03-23T13:41:44;4.45;;;1.15;;
21833;SDS011;11079;51.092;3.458;2024-03-23T13:44:14;5.53;;;1.35;;
21833;SDS011;11079;51.092;3.458;2024-03-23T13:46:45;5.18;;;1.48;;
21833;SDS011;11079;51.092;3.458;2024-03-23T13:49:31;4.20;;;1.63;;
21833;SDS011;11079;51.092;3.458;2024-03-23T13:52:16;2.75;;;1.10;;
21833;SDS011;11079;51.092;3.458;2024-03-23T13:54:55;3.20;;;1.50;;
21833;SDS011;11079;51.092;3.458;2024-03-23T13:58:20;2.55;;;1.20;;
21833;SDS011;11079;51.092;3.458;2024-03-23T14:01:02;6.78;;;1.70;;
21833;SDS011;11079;51.092;3.458;2024-03-23T14:03:41;3.85;;;1.17;;
21833;SDS011;11079;51.092;3.458;2024-03-23T14:06:10;5.55;;;1.45;;
21833;SDS011;11079;51.092;3.458;2024-03-23T14:08:38;4.38;;;1.45;;
21833;SDS011;11079;51.092;3.458;2024-03-23T14:11:07;2.78;;;1.45;;
21833;SDS011;11079;51.092;3.458;2024-03-23T14:13:51;3.28;;;1.40;;
21833;SDS011;11079;51.092;3.458;2024-03-23T14:16:22;3.90;;;1.15;;
21833;SDS011;11079;51.092;3.458;2024-03-23T14:18:49;9.35;;;1.80;;
21833;SDS011;11079;51.092;3.458;2024-03-23T14:21:15;3.03;;;0.90;;
21833;SDS011;11079;51.092;3.458;2024-03-23T14:23:41;3.35;;;1.15;;
21833;SDS011;11079;51.092;3.458;2024-03-23T14:26:07;3.85;;;0.88;;
21833;SDS011;11079;51.092;3.458;2024-03-23T14:28:36;4.32;;;1.10;;
21833;SDS011;11079;51.092;3.458;2024-03-23T14:31:03;4.65;;;1.23;;
21833;SDS011;11079;51.092;3.458;2024-03-23T14:33:36;4.57;;;1.25;;
21833;SDS011;11079;51.092;3.458;2024-03-23T14:36:04;5.95;;;1.20;;
21833;SDS011;11079;51.092;3.458;2024-03-23T14:38:30;2.97;;;1.33;;
21833;SDS011;11079;51.092;3.458;2024-03-23T14:41:00;3.63;;;1.35;;
21833;SDS011;11079;51.092;3.458;2024-03-23T14:43:28;1.70;;;1.15;;
21833;SDS011;11079;51.092;3.458;2024-03-23T14:48:36;5.25;;;1.50;;
21833;SDS011;11079;51.092;3.458;2024-03-23T14:51:02;6.22;;;1.60;;
21833;SDS011;11079;51.092;3.458;2024-03-23T14:53:30;5.13;;;1.42;;
21833;SDS011;11079;51.092;3.458;2024-03-23T14:55:59;3.08;;;1.48;;
21833;SDS011;11079;51.092;3.458;2024-03-23T14:58:26;5.07;;;1.55;;
21833;SDS011;11079;51.092;3.458;2024-03-23T15:00:53;8.77;;;1.30;;
21833;SDS011;11079;51.092;3.458;2024-03-23T15:03:27;9.02;;;1.73;;
21833;SDS011;11079;51.092;3.458;2024-03-23T15:05:53;5.45;;;1.25;;
21833;SDS011;11079;51.092;3.458;2024-03-23T15:08:24;6.40;;;1.45;;
21833;SDS011;11079;51.092;3.458;2024-03-23T15:10:50;4.45;;;1.67;;
21833;SDS011;11079;51.092;3.458;2024-03-23T15:13:16;4.40;;;1.52;;
21833;SDS011;11079;51.092;3.458;2024-03-23T15:15:42;6.45;;;1.80;;
21833;SDS011;11079;51.092;3.458;2024-03-23T15:18:13;10.20;;;1.70;;
21833;SDS011;11079;51.092;3.458;2024-03-23T15:20:56;2.28;;;1.27;;
21833;SDS011;11079;51.092;3.458;2024-03-23T15:23:23;12.05;;;2.42;;
21833;SDS011;11079;51.092;3.458;2024-03-23T15:25:55;9.00;;;2.28;;
21833;SDS011;11079;51.092;3.458;2024-03-23T15:28:26;3.20;;;1.10;;
21833;SDS011;11079;51.092;3.458;2024-03-23T15:31:03;7.18;;;1.98;;
21833;SDS011;11079;51.092;3.458;2024-03-23T15:33:33;4.70;;;1.75;;
21833;SDS011;11079;51.092;3.458;2024-03-23T15:36:02;5.32;;;2.83;;
21833;SDS011;11079;51.092;3.458;2024-03-23T15:38:28;5.50;;;1.92;;
21833;SDS011;11079;51.092;3.458;2024-03-23T15:40:54;9.52;;;2.60;;
21833;SDS011;11079;51.092;3.458;2024-03-23T15:43:21;7.45;;;1.98;;
21833;SDS011;11079;51.092;3.458;2024-03-23T15:45:54;4.88;;;1.77;;
21833;SDS011;11079;51.092;3.458;2024-03-23T15:48:21;8.93;;;2.95;;
21833;SDS011;11079;51.092;3.458;2024-03-23T15:50:53;9.50;;;2.70;;
21833;SDS011;11079;51.092;3.458;2024-03-23T15:53:21;8.27;;;1.92;;
21833;SDS011;11079;51.092;3.458;2024-03-23T15:55:57;5.78;;;2.05;;
21833;SDS011;11079;51.092;3.458;2024-03-23T15:58:23;4.18;;;2.05;;
21833;SDS011;11079;51.092;3.458;2024-03-23T16:01:00;5.43;;;2.03;;